Time;durP1;ratioP1;P1;durP2;ratioP2;P2;SDS_P1;SDS_P2;PMS_P1;PMS_P2;Temp;Humidity;BMP_temperature;BMP_pressure;BME280_temperature;BME280_humidity;BME280_pressure;Samples;Min_cycle;Max_cycle;Signal;HPM_P1;HPM_P2
2023/09/27 00:03:33;;;;;;;6.78;6.18;;;;;;;15.66;80.52;100862.56;10453106;28;20500;-78
2023/09/27 00:08:36;;;;;;;7.72;6.45;;;;;;;15.75;79.33;100847.31;10456999;28;20068;-75
2023/09/27 00:13:40;;;;;;;7.55;6.82;;;;;;;15.44;79.51;100828.53;10452042;28;20052;-77
2023/09/27 00:18:45;;;;;;;7.78;6.95;;;;;;;15.30;80.77;100832.53;10441851;28;20049;-77
2023/09/27 00:23:48;;;;;;;8.27;7.35;;;;;;;15.26;81.33;100831.97;10447372;28;20065;-77
2023/09/27 00:28:52;;;;;;;9.20;7.43;;;;;;;15.25;81.36;100840.25;10436901;28;20092;-76
2023/09/27 00:33:55;;;;;;;13.05;8.13;;;;;;;15.26;81.34;100840.09;10468965;28;20057;-77
2023/09/27 00:38:58;;;;;;;9.10;7.70;;;;;;;15.30;81.25;100842.50;10439425;28;20071;-77
2023/09/27 00:44:02;;;;;;;8.80;7.80;;;;;;;15.26;81.14;100826.56;10451418;28;21163;-76
2023/09/27 00:49:08;;;;;;;8.85;8.05;;;;;;;15.13;81.66;100817.03;10449782;28;20048;-77
2023/09/27 00:54:12;;;;;;;11.85;9.20;;;;;;;15.09;82.14;100819.16;10454503;28;20048;-75
2023/09/27 00:59:18;;;;;;;11.07;8.82;;;;;;;15.10;81.92;100828.13;10462596;28;20047;-77
2023/09/27 01:04:21;;;;;;;9.43;8.48;;;;;;;15.04;82.48;100832.28;10430147;28;20041;-77
2023/09/27 01:09:24;;;;;;;8.85;7.93;;;;;;;14.94;82.34;100834.09;10434574;28;20045;-78
2023/09/27 01:14:29;;;;;;;9.77;8.23;;;;;;;14.81;83.13;100827.16;10446897;28;20041;-76
2023/09/27 01:19:34;;;;;;;10.80;8.93;;;;;;;14.79;83.44;100826.41;10452778;28;20052;-76
2023/09/27 01:24:38;;;;;;;10.07;8.00;;;;;;;14.75;83.83;100824.13;10461310;28;20059;-77
2023/09/27 01:29:41;;;;;;;11.38;8.85;;;;;;;14.75;83.46;100837.66;10443026;28;20132;-74
2023/09/27 01:34:44;;;;;;;11.23;8.45;;;;;;;14.74;83.48;100833.25;10440801;28;20065;-77
2023/09/27 01:39:48;;;;;;;9.07;8.18;;;;;;;14.70;83.69;100837.22;10461897;28;20048;-78
2023/09/27 01:44:51;;;;;;;11.18;8.75;;;;;;;14.69;83.60;100844.47;10429800;28;20051;-77
2023/09/27 01:49:54;;;;;;;10.55;7.30;;;;;;;14.71;83.40;100845.19;10428617;28;20056;-76
2023/09/27 01:54:58;;;;;;;8.52;7.40;;;;;;;14.74;83.06;100846.78;10450189;28;20433;-77
2023/09/27 02:00:03;;;;;;;8.25;7.40;;;;;;;14.69;82.91;100851.75;10433469;28;20053;-77
2023/09/27 02:05:13;;;;;;;8.85;7.95;;;;;;;14.67;83.03;100851.03;10445336;28;20121;-78
2023/09/27 02:10:18;;;;;;;8.75;7.85;;;;;;;14.63;83.09;100850.44;10431377;28;20202;-74
2023/09/27 02:15:21;;;;;;;8.73;7.80;;;;;;;14.58;83.36;100852.72;10452233;28;21145;-78
2023/09/27 02:20:25;;;;;;;9.93;8.73;;;;;;;14.65;83.11;100867.41;10436713;28;20045;-77
2023/09/27 02:25:30;;;;;;;10.07;7.93;;;;;;;14.59;83.26;100878.78;10433785;28;20111;-77
2023/09/27 02:30:32;;;;;;;9.95;8.07;;;;;;;14.56;83.17;100892.53;10453000;28;20143;-77
2023/09/27 02:35:37;;;;;;;8.35;7.55;;;;;;;14.55;83.20;100886.28;10444716;28;20056;-77
2023/09/27 02:40:43;;;;;;;9.00;8.05;;;;;;;14.49;83.69;100876.03;10440452;28;21399;-77
2023/09/27 02:45:46;;;;;;;9.32;8.07;;;;;;;14.40;83.43;100892.19;10448271;28;21578;-77
2023/09/27 02:50:49;;;;;;;10.55;8.02;;;;;;;14.33;83.73;100887.31;10456060;28;20050;-75
2023/09/27 02:55:53;;;;;;;10.73;8.80;;;;;;;14.26;84.02;100888.00;10454328;28;20044;-77
2023/09/27 03:00:57;;;;;;;9.80;8.80;;;;;;;14.15;84.93;100895.22;10466715;28;20044;-78
2023/09/27 03:06:00;;;;;;;11.35;9.57;;;;;;;14.05;85.51;100894.31;10437536;28;20169;-78
2023/09/27 03:11:04;;;;;;;11.80;9.45;;;;;;;14.02;86.06;100882.94;10446630;28;20074;-78
2023/09/27 03:16:07;;;;;;;11.52;9.40;;;;;;;13.96;86.08;100872.66;10440072;28;20841;-76
2023/09/27 03:21:12;;;;;;;12.05;9.30;;;;;;;14.01;85.95;100873.09;10445428;28;20064;-76
2023/09/27 03:26:16;;;;;;;12.02;10.27;;;;;;;13.95;86.17;100874.50;10459216;28;20511;-77
2023/09/27 03:31:20;;;;;;;13.13;9.13;;;;;;;13.93;85.89;100861.16;10441618;28;20059;-78
2023/09/27 03:36:23;;;;;;;11.68;10.48;;;;;;;13.86;86.46;100861.81;10441383;28;20040;-77
2023/09/27 03:41:28;;;;;;;12.73;10.65;;;;;;;13.79;86.68;100849.81;10443191;28;20052;-77
2023/09/27 03:46:30;;;;;;;10.63;9.57;;;;;;;13.80;86.62;100862.34;10437174;28;20083;-77
2023/09/27 03:51:34;;;;;;;12.95;10.40;;;;;;;13.82;86.62;100855.84;10436986;28;20052;-78
2023/09/27 03:56:38;;;;;;;15.32;10.80;;;;;;;13.76;86.73;100872.53;10433516;28;20053;-78
2023/09/27 04:01:42;;;;;;;12.48;10.57;;;;;;;13.70;87.13;100868.53;10433974;28;20531;-76
2023/09/27 04:06:46;;;;;;;12.20;10.40;;;;;;;13.68;87.31;100881.31;10451160;28;20055;-78
2023/09/27 04:11:50;;;;;;;13.82;10.93;;;;;;;13.65;87.32;100864.53;10451494;28;20075;-75
2023/09/27 04:16:59;;;;;;;12.15;10.90;;;;;;;13.59;87.46;100873.16;10450208;28;20060;-76
2023/09/27 04:22:03;;;;;;;13.40;10.43;;;;;;;13.64;87.52;100876.31;10450670;28;20055;-76
2023/09/27 04:27:07;;;;;;;13.02;10.25;;;;;;;13.63;86.97;100877.28;10448092;28;20039;-77
2023/09/27 04:32:10;;;;;;;12.00;10.60;;;;;;;13.61;87.05;100885.53;10441789;28;20189;-77
2023/09/27 04:37:13;;;;;;;15.70;10.98;;;;;;;13.56;87.18;100878.81;10436776;28;20052;-74
2023/09/27 04:42:17;;;;;;;13.48;10.55;;;;;;;13.51;86.97;100873.81;10440968;28;20056;-77
2023/09/27 04:47:20;;;;;;;12.10;10.80;;;;;;;13.52;86.94;100891.75;10441976;28;20060;-77
2023/09/27 04:52:23;;;;;;;11.60;9.70;;;;;;;13.42;87.43;100888.09;10434912;28;20135;-76
2023/09/27 04:57:27;;;;;;;13.10;10.93;;;;;;;13.45;87.56;100899.47;10434790;28;20061;-77
2023/09/27 05:02:30;;;;;;;14.23;11.43;;;;;;;13.42;87.13;100907.00;10441248;28;20530;-78
2023/09/27 05:07:33;;;;;;;15.13;11.30;;;;;;;13.36;87.47;100911.03;10446147;28;20063;-78
2023/09/27 05:12:39;;;;;;;14.07;10.40;;;;;;;13.32;87.65;100914.97;10442644;28;20128;-78
2023/09/27 05:17:42;;;;;;;13.27;11.18;;;;;;;13.24;87.56;100907.50;10439631;28;20045;-77
2023/09/27 05:22:45;;;;;;;14.85;11.55;;;;;;;13.17;88.32;100903.63;10443537;28;20045;-78
2023/09/27 05:27:49;;;;;;;14.52;11.32;;;;;;;13.17;88.31;100900.94;10443899;28;21579;-77
2023/09/27 05:32:53;;;;;;;16.33;11.82;;;;;;;13.21;87.99;100905.06;10470087;28;20511;-77
2023/09/27 05:37:57;;;;;;;13.63;11.10;;;;;;;13.24;88.12;100902.13;10442737;28;20088;-78
2023/09/27 05:43:02;;;;;;;10.88;8.00;;;;;;;13.32;88.58;100892.53;10427668;28;20133;-76
2023/09/27 05:48:06;;;;;;;15.27;10.52;;;;;;;13.81;85.86;100875.72;10447274;28;20092;-77
2023/09/27 05:53:11;;;;;;;11.95;9.35;;;;;;;13.81;85.42;100881.09;10453160;28;20045;-77
2023/09/27 05:58:15;;;;;;;10.77;8.60;;;;;;;14.19;83.48;100871.50;10452788;28;20260;-77
2023/09/27 06:03:18;;;;;;;14.13;9.05;;;;;;;14.34;82.21;100886.34;10458046;28;20094;-78
2023/09/27 06:08:21;;;;;;;15.93;10.07;;;;;;;14.37;81.84;100891.47;10460976;28;20414;-78
2023/09/27 06:13:26;;;;;;;13.10;10.27;;;;;;;14.32;82.33;100879.38;10457682;28;20126;-77
2023/09/27 06:18:29;;;;;;;13.02;10.52;;;;;;;14.23;83.17;100886.41;10452957;28;20048;-78
2023/09/27 06:23:32;;;;;;;12.48;10.73;;;;;;;14.49;82.46;100894.94;10456183;28;20040;-78
2023/09/27 06:28:37;;;;;;;12.35;10.18;;;;;;;14.77;81.24;100905.97;10453644;28;20458;-76
2023/09/27 06:33:43;;;;;;;15.98;10.63;;;;;;;15.04;80.34;100908.03;10467482;28;20057;-78
2023/09/27 06:38:47;;;;;;;13.75;10.13;;;;;;;15.44;78.47;100912.47;10478922;28;20048;-77
2023/09/27 06:43:51;;;;;;;13.60;10.38;;;;;;;15.64;77.94;100905.19;10470945;28;20056;-78
2023/09/27 06:48:54;;;;;;;12.43;9.90;;;;;;;15.93;76.99;100903.28;10477040;28;20045;-78
2023/09/27 06:53:57;;;;;;;12.80;10.77;;;;;;;16.25;75.67;100910.16;10496715;28;20522;-75
2023/09/27 06:59:02;;;;;;;13.45;10.25;;;;;;;16.70;74.48;100920.28;10526147;28;20059;-77
2023/09/27 07:04:05;;;;;;;10.77;9.68;;;;;;;17.00;73.52;100938.06;10480732;28;20044;-78
2023/09/27 07:09:13;;;;;;;17.40;11.25;;;;;;;17.16;71.82;100936.56;10470814;28;20057;-77
2023/09/27 07:14:19;;;;;;;14.98;10.13;;;;;;;17.01;73.11;100947.06;10437356;28;20187;-78
2023/09/27 07:19:23;;;;;;;13.10;10.57;;;;;;;17.33;72.95;100952.00;10450708;28;20056;-77
2023/09/27 07:24:29;;;;;;;11.38;10.18;;;;;;;17.88;71.10;100949.09;10450946;28;20048;-77
2023/09/27 07:29:34;;;;;;;13.02;10.10;;;;;;;17.98;69.30;100943.56;10450557;28;20048;-76
2023/09/27 07:34:37;;;;;;;11.85;10.02;;;;;;;18.20;68.97;100936.75;10433518;28;20044;-77
2023/09/27 07:39:40;;;;;;;11.73;10.07;;;;;;;18.35;67.26;100926.97;10436222;28;20052;-77
2023/09/27 07:44:48;;;;;;;13.63;10.18;;;;;;;18.57;66.82;100919.25;10446710;28;20051;-77
2023/09/27 07:49:50;;;;;;;13.15;10.75;;;;;;;18.73;66.54;100930.22;10449718;28;20045;-77
2023/09/27 07:54:53;;;;;;;10.23;9.27;;;;;;;19.43;65.70;100948.09;10446008;28;20059;-77
2023/09/27 07:59:58;;;;;;;11.13;9.93;;;;;;;19.54;64.96;100945.03;10450631;28;20519;-77
2023/09/27 08:05:02;;;;;;;11.63;9.05;;;;;;;19.88;63.80;100963.09;10435549;28;20527;-76
2023/09/27 08:10:07;;;;;;;11.43;7.88;;;;;;;18.61;67.58;100960.59;10454399;28;20060;-77
2023/09/27 08:15:25;;;;;;;9.27;7.22;;;;;;;19.97;64.73;100962.09;10455249;28;20102;-77
2023/09/27 08:20:27;;;;;;;8.50;7.57;;;;;;;20.39;63.11;100966.47;10451403;28;20706;-77
2023/09/27 08:25:31;;;;;;;9.88;8.63;;;;;;;21.04;61.54;100959.06;10453765;28;20480;-77
2023/09/27 08:30:35;;;;;;;8.45;7.65;;;;;;;21.15;60.55;100947.75;10451867;28;20052;-77
2023/09/27 08:35:38;;;;;;;9.13;7.90;;;;;;;21.21;59.53;100952.47;10450626;28;20056;-77
2023/09/27 08:40:43;;;;;;;10.38;8.40;;;;;;;20.81;61.68;100934.41;10448829;28;20059;-77
2023/09/27 08:45:48;;;;;;;9.27;7.65;;;;;;;21.28;61.17;100926.09;10447525;28;20048;-77
2023/09/27 08:50:51;;;;;;;10.82;7.57;;;;;;;21.45;59.49;100908.56;10451911;28;20169;-77
2023/09/27 08:55:55;;;;;;;8.68;7.78;;;;;;;21.02;61.74;100894.50;10451710;28;20055;-76
2023/09/27 09:00:59;;;;;;;7.75;6.95;;;;;;;20.72;63.12;100900.84;10448915;28;20052;-76
2023/09/27 09:06:04;;;;;;;8.38;7.45;;;;;;;20.50;63.67;100897.88;10459450;28;20068;-78
2023/09/27 09:11:09;;;;;;;8.30;6.75;;;;;;;20.11;64.96;100892.34;10460372;28;20052;-77
2023/09/27 09:16:23;;;;;;;8.30;6.93;;;;;;;19.96;65.99;100884.03;10451192;28;20423;-77
2023/09/27 09:21:27;;;;;;;11.93;7.97;;;;;;;19.93;66.23;100887.09;10443657;28;20078;-76
2023/09/27 09:26:30;;;;;;;9.02;8.15;;;;;;;20.31;64.80;100890.09;10439664;28;21217;-77
2023/09/27 09:31:35;;;;;;;11.20;10.10;;;;;;;20.95;61.91;100885.38;10438557;28;20182;-76
2023/09/27 09:36:38;;;;;;;12.32;9.05;;;;;;;22.21;59.18;100878.44;10452325;28;20080;-77
2023/09/27 09:41:45;;;;;;;9.80;8.70;;;;;;;22.21;57.28;100883.91;10443658;28;20044;-77
2023/09/27 09:46:51;;;;;;;10.13;9.05;;;;;;;22.74;57.48;100872.84;10444484;28;21296;-77
2023/09/27 09:51:57;;;;;;;11.07;8.55;;;;;;;22.80;56.10;100860.28;10434831;28;20784;-76
2023/09/27 09:57:01;;;;;;;7.68;6.63;;;;;;;22.66;57.09;100859.28;10439015;28;21246;-76
2023/09/27 10:02:20;;;;;;;11.25;6.43;;;;;;;21.93;58.47;100839.13;10444948;28;20128;-77
2023/09/27 10:07:23;;;;;;;7.90;5.80;;;;;;;21.87;58.84;100827.91;10453615;28;21156;-77
2023/09/27 10:12:28;;;;;;;7.25;6.55;;;;;;;21.31;61.52;100832.00;10452538;28;20053;-78
2023/09/27 10:17:33;;;;;;;7.43;6.55;;;;;;;20.76;64.10;100823.00;10443967;28;20631;-77
2023/09/27 10:22:36;;;;;;;8.15;7.35;;;;;;;20.56;66.25;100817.16;10439290;28;20048;-77
2023/09/27 10:28:05;;;;;;;10.80;8.25;;;;;;;20.66;67.23;100822.41;10454426;28;20044;-78
2023/09/27 10:33:34;;;;;;;10.55;7.75;;;;;;;21.36;64.58;100819.50;10473912;28;20056;-77
2023/09/27 10:39:02;;;;;;;9.38;7.28;;;;;;;22.14;61.29;100828.28;10471152;28;20048;-77
2023/09/27 10:44:05;;;;;;;8.82;7.20;;;;;;;23.56;57.98;100809.38;10475612;28;20048;-77
2023/09/27 10:49:10;;;;;;;9.15;8.27;;;;;;;25.21;51.46;100812.22;10469781;28;20503;-76
2023/09/27 10:54:13;;;;;;;9.98;7.40;;;;;;;26.41;50.03;100812.84;10453546;28;20048;-77
2023/09/27 10:59:23;;;;;;;6.47;5.88;;;;;;;27.09;47.28;100803.97;10448987;28;20052;-77
2023/09/27 11:04:27;;;;;;;9.07;7.32;;;;;;;27.93;45.18;100797.06;10446981;28;20044;-76
2023/09/27 11:09:30;;;;;;;6.50;5.50;;;;;;;28.18;45.59;100794.25;10449571;28;20099;-77
2023/09/27 11:14:35;;;;;;;8.55;5.90;;;;;;;28.80;44.20;100795.97;10448726;28;20048;-77
2023/09/27 11:19:39;;;;;;;6.38;5.15;;;;;;;27.98;44.27;100777.94;10449812;28;20097;-77
2023/09/27 11:24:42;;;;;;;6.18;4.97;;;;;;;27.45;46.15;100781.22;10446782;28;20522;-77
2023/09/27 11:29:50;;;;;;;7.85;5.38;;;;;;;27.86;45.43;100765.91;10443408;28;20490;-77
2023/09/27 11:34:56;;;;;;;5.22;4.72;;;;;;;28.07;44.45;100761.06;10448668;28;20045;-76
2023/09/27 11:39:59;;;;;;;5.20;4.70;;;;;;;28.05;44.16;100753.81;10453026;28;20045;-76
2023/09/27 11:45:04;;;;;;;5.28;3.85;;;;;;;28.85;43.92;100743.59;10446561;28;20075;-76
2023/09/27 11:50:09;;;;;;;3.70;3.40;;;;;;;29.05;42.79;100735.81;10435017;28;20056;-76
2023/09/27 11:55:12;;;;;;;3.78;3.40;;;;;;;30.30;41.27;100733.66;10445497;28;20044;-76
2023/09/27 12:00:16;;;;;;;3.72;3.00;;;;;;;30.83;39.23;100737.16;10441612;28;20175;-76
2023/09/27 12:05:20;;;;;;;4.97;3.05;;;;;;;30.52;38.70;100733.78;10448927;28;20049;-76
2023/09/27 12:10:24;;;;;;;4.13;3.38;;;;;;;30.48;39.01;100716.00;10460549;28;20052;-76
2023/09/27 12:15:28;;;;;;;2.85;2.65;;;;;;;29.74;39.43;100718.66;10440712;28;20123;-76
2023/09/27 12:20:32;;;;;;;3.75;3.00;;;;;;;28.50;39.92;100720.28;10438142;28;20044;-76
2023/09/27 12:25:38;;;;;;;4.05;2.92;;;;;;;28.63;39.89;100701.84;10447473;28;20119;-76
2023/09/27 12:30:41;;;;;;;3.90;3.05;;;;;;;28.22;40.27;100692.44;10451996;28;20769;-76
2023/09/27 12:35:46;;;;;;;4.40;2.55;;;;;;;28.98;40.24;100693.59;10445988;28;20053;-76
2023/09/27 12:40:49;;;;;;;4.90;2.70;;;;;;;29.82;39.09;100687.81;10438934;28;20040;-76
2023/09/27 12:45:52;;;;;;;7.72;2.78;;;;;;;28.62;40.16;100678.91;10445655;28;20056;-76
2023/09/27 12:50:57;;;;;;;3.33;3.03;;;;;;;27.08;43.02;100672.72;10448326;28;20049;-76
2023/09/27 12:56:00;;;;;;;3.60;2.85;;;;;;;29.12;41.79;100669.34;10448185;28;20158;-76
2023/09/27 13:01:03;;;;;;;2.65;2.22;;;;;;;32.08;35.59;100664.56;10429809;28;21175;-76
2023/09/27 13:06:09;;;;;;;4.20;2.65;;;;;;;33.44;33.90;100654.88;10449015;28;20057;-77
2023/09/27 13:11:12;;;;;;;3.60;2.50;;;;;;;32.85;33.28;100661.44;10456147;28;20966;-77
2023/09/27 13:16:15;;;;;;;3.80;3.00;;;;;;;30.76;36.71;100645.81;10462100;28;20052;-77
2023/09/27 13:21:19;;;;;;;2.67;2.47;;;;;;;29.36;37.91;100651.66;10447458;28;20525;-77
2023/09/27 13:26:22;;;;;;;4.30;2.85;;;;;;;28.54;38.98;100648.84;10462792;28;20056;-77
2023/09/27 13:31:26;;;;;;;3.72;2.58;;;;;;;27.63;41.58;100650.72;10464168;28;20040;-78
2023/09/27 13:36:36;;;;;;;2.55;2.33;;;;;;;29.37;38.89;100642.28;10466059;28;20044;-77
2023/09/27 13:41:41;;;;;;;2.50;2.30;;;;;;;29.35;38.54;100643.63;10461720;28;21250;-77
2023/09/27 13:46:44;;;;;;;2.95;2.60;;;;;;;30.05;36.57;100628.72;10441805;28;20562;-77
2023/09/27 13:51:48;;;;;;;2.40;2.20;;;;;;;29.68;37.84;100609.75;10466351;28;20044;-78
2023/09/27 13:56:51;;;;;;;2.92;2.67;;;;;;;28.54;39.65;100607.41;10444899;28;20060;-77
2023/09/27 14:01:54;;;;;;;2.75;2.50;;;;;;;27.70;40.71;100603.72;10441340;28;20056;-77
2023/09/27 14:06:59;;;;;;;3.13;2.60;;;;;;;26.91;42.37;100585.13;10444605;28;21276;-77
2023/09/27 14:12:03;;;;;;;3.63;2.78;;;;;;;27.66;41.08;100586.81;10446029;28;20060;-76
2023/09/27 14:17:06;;;;;;;5.30;2.70;;;;;;;26.60;42.29;100575.00;10440798;28;20045;-76
2023/09/27 14:22:11;;;;;;;5.53;2.88;;;;;;;25.83;44.36;100575.09;10460139;28;20045;-77
2023/09/27 14:27:13;;;;;;;5.40;2.60;;;;;;;25.51;45.73;100576.13;10477632;28;20790;-77
2023/09/27 14:32:16;;;;;;;3.47;2.40;;;;;;;25.67;45.30;100558.28;10473237;28;20048;-76
2023/09/27 14:37:21;;;;;;;3.88;2.22;;;;;;;25.84;45.51;100563.06;10453457;28;20064;-77
2023/09/27 14:42:24;;;;;;;4.72;2.50;;;;;;;25.49;46.24;100556.25;10473184;28;20178;-77
2023/09/27 14:47:27;;;;;;;4.68;2.60;;;;;;;25.34;46.42;100557.38;10483398;28;20056;-77
2023/09/27 14:52:32;;;;;;;4.35;2.83;;;;;;;26.28;44.03;100557.72;10475089;28;20041;-77
2023/09/27 14:57:35;;;;;;;2.83;2.53;;;;;;;26.23;44.64;100554.75;10450526;28;20103;-77
2023/09/27 15:02:38;;;;;;;3.70;3.00;;;;;;;25.55;45.85;100545.19;10425206;28;20056;-77
2023/09/27 15:07:42;;;;;;;4.35;3.22;;;;;;;24.83;48.31;100543.56;10444475;28;20172;-77
2023/09/27 15:12:47;;;;;;;3.83;3.10;;;;;;;24.41;50.29;100546.56;10467768;28;20735;-77
2023/09/27 15:17:50;;;;;;;6.80;3.10;;;;;;;24.25;50.42;100535.97;10468279;28;20056;-76
2023/09/27 15:22:54;;;;;;;7.05;3.58;;;;;;;24.30;50.95;100527.97;10471098;28;20048;-77
2023/09/27 15:27:57;;;;;;;4.20;2.97;;;;;;;24.76;51.07;100525.16;10470593;28;20539;-77
2023/09/27 15:33:00;;;;;;;5.65;3.42;;;;;;;25.82;49.27;100526.66;10469833;28;20045;-77
2023/09/27 15:38:06;;;;;;;2.95;2.75;;;;;;;26.01;48.34;100524.84;10447073;28;20049;-77
2023/09/27 15:43:11;;;;;;;3.72;2.83;;;;;;;26.38;47.32;100529.66;10457354;28;20050;-77
2023/09/27 15:48:14;;;;;;;3.60;3.10;;;;;;;26.08;47.77;100520.13;10439766;28;20052;-77
2023/09/27 15:53:18;;;;;;;4.97;2.78;;;;;;;25.83;48.31;100516.50;10440454;28;20522;-77
2023/09/27 15:58:21;;;;;;;5.03;2.38;;;;;;;25.99;48.35;100521.47;10440705;28;20053;-77
2023/09/27 16:03:24;;;;;;;5.93;3.05;;;;;;;25.39;51.02;100516.28;10439829;28;20052;-75
2023/09/27 16:08:29;;;;;;;6.22;3.22;;;;;;;24.50;55.43;100522.47;10447441;28;20195;-77
2023/09/27 16:13:32;;;;;;;2.97;2.63;;;;;;;24.51;56.17;100514.00;10428485;28;20041;-77
2023/09/27 16:18:34;;;;;;;3.08;2.88;;;;;;;24.74;55.95;100512.72;10452899;28;20405;-77
2023/09/27 16:23:39;;;;;;;4.28;2.85;;;;;;;24.85;55.02;100524.94;10434841;28;20056;-77
2023/09/27 16:28:42;;;;;;;5.75;3.20;;;;;;;24.38;59.28;100526.88;10464743;28;20075;-77
2023/09/27 16:33:46;;;;;;;3.63;2.85;;;;;;;23.93;61.14;100530.25;10459783;28;20055;-77
2023/09/27 16:38:51;;;;;;;4.70;3.20;;;;;;;23.63;61.87;100527.00;10461824;28;20676;-77
2023/09/27 16:43:54;;;;;;;4.45;2.83;;;;;;;23.01;63.84;100526.09;10457941;28;20048;-77
2023/09/27 16:48:58;;;;;;;8.43;3.55;;;;;;;22.57;64.73;100516.34;10439072;28;20047;-78
2023/09/27 16:54:02;;;;;;;5.97;3.60;;;;;;;22.22;66.47;100521.75;10431601;28;20044;-77
2023/09/27 16:59:05;;;;;;;6.78;3.70;;;;;;;22.00;67.11;100523.66;10435815;28;20060;-77
2023/09/27 17:04:08;;;;;;;6.55;4.55;;;;;;;21.73;66.77;100502.53;10445717;28;20057;-77
2023/09/27 17:09:14;;;;;;;7.28;4.82;;;;;;;21.49;65.96;100509.22;10440228;28;20048;-77
2023/09/27 17:14:16;;;;;;;6.68;4.70;;;;;;;21.31;66.32;100502.31;10437933;28;20045;-77
2023/09/27 17:19:23;;;;;;;6.85;5.20;;;;;;;21.11;66.54;100503.94;10445143;28;20049;-76
2023/09/27 17:24:28;;;;;;;5.50;4.93;;;;;;;20.92;67.15;100494.41;10424363;28;20041;-77
2023/09/27 17:29:31;;;;;;;10.48;4.80;;;;;;;20.77;67.51;100492.53;10461297;28;20052;-77
2023/09/27 17:34:34;;;;;;;5.35;4.60;;;;;;;20.64;67.75;100486.88;10471658;28;21175;-77
2023/09/27 17:39:39;;;;;;;7.55;4.93;;;;;;;20.56;68.47;100489.69;10471333;28;21266;-77
2023/09/27 17:44:42;;;;;;;5.07;4.68;;;;;;;20.51;68.96;100490.25;10474275;28;20105;-76
2023/09/27 17:49:44;;;;;;;5.45;4.95;;;;;;;20.43;69.25;100478.59;10453625;28;20518;-77
2023/09/27 17:54:49;;;;;;;6.97;5.45;;;;;;;20.23;69.57;100465.47;10461429;28;20058;-77
2023/09/27 17:59:52;;;;;;;8.05;5.35;;;;;;;20.00;70.58;100478.31;10470263;28;20048;-77
2023/09/27 18:04:55;;;;;;;8.35;4.97;;;;;;;19.96;70.70;100488.72;10461196;28;20055;-76
2023/09/27 18:09:59;;;;;;;5.10;4.70;;;;;;;19.95;70.06;100478.84;10464386;28;20057;-78
2023/09/27 18:15:05;;;;;;;7.57;4.78;;;;;;;19.82;69.65;100479.47;10440954;28;20075;-77
2023/09/27 18:20:27;;;;;;;6.45;4.90;;;;;;;19.68;70.20;100475.66;10441971;28;20064;-77
2023/09/27 18:25:32;;;;;;;6.65;5.18;;;;;;;19.61;70.08;100474.69;10460235;28;20744;-78
2023/09/27 18:30:35;;;;;;;7.40;4.90;;;;;;;19.59;69.62;100463.13;10464824;28;20048;-78
2023/09/27 18:35:38;;;;;;;6.28;4.65;;;;;;;19.52;69.60;100466.72;10475049;28;20734;-77
2023/09/27 18:40:43;;;;;;;6.97;4.82;;;;;;;19.42;69.21;100464.25;10443819;28;20048;-78
2023/09/27 18:45:46;;;;;;;6.03;4.80;;;;;;;19.24;69.85;100464.50;10459694;28;20048;-79
2023/09/27 18:50:50;;;;;;;6.32;4.55;;;;;;;19.11;70.21;100464.25;10444901;28;20048;-76
2023/09/27 18:55:56;;;;;;;7.35;5.18;;;;;;;19.00;70.75;100465.50;10451843;28;20060;-77
2023/09/27 19:00:59;;;;;;;6.95;5.47;;;;;;;18.93;70.79;100456.34;10472886;28;20167;-77
2023/09/27 19:06:02;;;;;;;7.15;5.13;;;;;;;18.89;70.91;100447.66;10462837;28;20045;-78
2023/09/27 19:11:06;;;;;;;8.00;5.28;;;;;;;18.86;70.27;100450.75;10453117;28;20048;-77
2023/09/27 19:16:09;;;;;;;7.00;5.50;;;;;;;18.91;69.78;100448.34;10429003;28;20044;-77
2023/09/27 19:21:12;;;;;;;6.85;5.22;;;;;;;18.91;69.45;100461.13;10452332;28;20507;-77
2023/09/27 19:26:16;;;;;;;5.95;4.93;;;;;;;18.92;69.44;100454.63;10446771;28;20043;-78
2023/09/27 19:31:19;;;;;;;5.82;5.13;;;;;;;18.80;69.78;100449.59;10455968;28;20058;-77
2023/09/27 19:36:22;;;;;;;7.18;5.70;;;;;;;18.68;70.24;100450.13;10453954;28;20056;-77
2023/09/27 19:41:30;;;;;;;6.50;5.68;;;;;;;18.58;70.56;100443.00;10452404;28;20057;-77
2023/09/27 19:46:33;;;;;;;8.18;6.10;;;;;;;18.43;71.56;100435.75;10479115;27;20120;-78
2023/09/27 19:51:36;;;;;;;9.68;6.07;;;;;;;18.24;72.42;100426.97;10523322;28;20131;-75
2023/09/27 19:56:43;;;;;;;8.45;5.85;;;;;;;18.13;72.90;100420.03;10486342;28;20146;-78
2023/09/27 20:01:47;;;;;;;7.30;5.72;;;;;;;18.10;73.25;100423.09;10477242;28;20459;-77
2023/09/27 20:06:50;;;;;;;8.27;5.57;;;;;;;18.01;73.06;100417.84;10452440;28;20474;-78
2023/09/27 20:11:54;;;;;;;8.90;5.95;;;;;;;17.89;73.92;100417.31;10468480;28;20059;-78
2023/09/27 20:16:57;;;;;;;6.30;5.70;;;;;;;17.88;74.21;100423.75;10488088;28;20052;-78
2023/09/27 20:22:01;;;;;;;10.35;6.30;;;;;;;17.89;74.17;100420.88;10466608;28;20044;-78
2023/09/27 20:27:05;;;;;;;5.90;5.25;;;;;;;17.92;74.22;100423.25;10436461;28;20049;-78
2023/09/27 20:32:08;;;;;;;7.57;6.35;;;;;;;17.91;74.02;100423.44;10442831;28;20154;-77
2023/09/27 20:37:11;;;;;;;7.35;6.30;;;;;;;17.73;74.48;100417.31;10453293;28;20871;-78
2023/09/27 20:42:17;;;;;;;7.95;7.18;;;;;;;17.50;74.92;100414.41;10459758;28;20048;-78
2023/09/27 20:47:20;;;;;;;7.90;7.03;;;;;;;17.30;76.10;100417.47;10452751;28;20131;-78
2023/09/27 20:52:23;;;;;;;7.60;6.68;;;;;;;17.32;76.74;100418.16;10458219;28;20045;-77
2023/09/27 20:57:27;;;;;;;7.60;6.80;;;;;;;17.29;76.79;100413.06;10466006;28;20060;-77
2023/09/27 21:02:30;;;;;;;9.38;7.68;;;;;;;17.23;77.03;100420.00;10467864;28;20064;-78
2023/09/27 21:07:33;;;;;;;8.75;6.95;;;;;;;17.14;77.42;100410.16;10450521;28;20045;-78
2023/09/27 21:12:38;;;;;;;8.45;7.63;;;;;;;17.04;78.03;100401.28;10455016;28;20233;-78
2023/09/27 21:17:40;;;;;;;8.80;6.93;;;;;;;16.94;78.53;100397.84;10453962;28;20051;-76
2023/09/27 21:22:43;;;;;;;7.85;6.65;;;;;;;16.88;78.77;100377.66;10450765;28;20284;-78
2023/09/27 21:27:48;;;;;;;12.25;8.18;;;;;;;16.69;79.63;100381.50;10442757;28;20055;-78
2023/09/27 21:32:52;;;;;;;7.97;7.28;;;;;;;16.65;79.91;100365.72;10455104;28;20045;-77
2023/09/27 21:37:54;;;;;;;10.05;7.95;;;;;;;16.55;80.47;100364.00;10478320;28;20510;-77
2023/09/27 21:42:59;;;;;;;10.77;8.45;;;;;;;16.50;81.31;100363.63;10447665;28;20426;-77
2023/09/27 21:48:02;;;;;;;9.23;8.38;;;;;;;16.47;81.22;100357.69;10448563;28;20056;-77
2023/09/27 21:53:05;;;;;;;9.60;8.45;;;;;;;16.41;81.57;100353.78;10447688;28;20044;-77
2023/09/27 21:58:10;;;;;;;13.02;8.25;;;;;;;16.34;81.60;100345.44;10448337;28;20122;-77
2023/09/27 22:03:16;;;;;;;9.98;7.78;;;;;;;16.28;82.04;100353.38;10448621;28;20111;-76
2023/09/27 22:08:22;;;;;;;8.40;7.60;;;;;;;16.32;81.88;100355.63;10444782;28;20055;-76
2023/09/27 22:13:29;;;;;;;10.82;8.70;;;;;;;16.28;82.01;100356.09;10432982;28;20511;-78
2023/09/27 22:18:33;;;;;;;9.90;8.45;;;;;;;16.32;81.69;100355.63;10453544;28;20049;-76
2023/09/27 22:23:39;;;;;;;11.25;8.85;;;;;;;16.31;81.65;100351.19;10478958;28;20053;-78
2023/09/27 22:28:44;;;;;;;11.20;9.57;;;;;;;16.33;81.73;100364.59;10463277;28;20177;-79
2023/09/27 22:33:48;;;;;;;11.82;8.70;;;;;;;16.35;81.57;100352.56;10468253;28;20382;-77
2023/09/27 22:38:51;;;;;;;10.40;9.30;;;;;;;16.36;81.27;100348.00;10449258;28;20062;-77
2023/09/27 22:43:56;;;;;;;13.60;8.88;;;;;;;16.39;80.98;100355.78;10448126;28;20063;-78
2023/09/27 22:49:00;;;;;;;9.85;8.63;;;;;;;16.39;80.31;100344.13;10461016;28;20052;-78
2023/09/27 22:54:04;;;;;;;10.48;9.30;;;;;;;16.36;80.60;100339.88;10463809;28;20059;-76
2023/09/27 22:59:08;;;;;;;10.48;8.95;;;;;;;16.39;80.52;100336.81;10481363;28;20041;-77
2023/09/27 23:04:14;;;;;;;10.38;9.23;;;;;;;16.32;80.36;100331.22;10457674;28;20044;-78
2023/09/27 23:09:24;;;;;;;10.90;9.80;;;;;;;16.27;80.42;100338.16;10465111;28;20048;-76